This is the latest recevied weather packets stored in our database for station/object KE0QIB. If no packets are shown the sender has not sent any weather packets the latest 10 day(s).
| Time | Temp. | Humidity | Pressure | Rain* | Wind** | Luminosity | Snow |
|---|---|---|---|---|---|---|---|
| 1777999613 | 6.11° C | 41% | 1001 hPa | 0 mm | - | - | - |
| 1777999313 | 6.11° C | 42% | 1001 hPa | 0 mm | - | - | - |
| 1777999013 | 6.11° C | 45% | 1001.3 hPa | 0 mm | - | - | - |
| 1777998713 | 5.56° C | 44% | 1001.3 hPa | 0 mm | - | - | - |
| 1777998413 | 5.56° C | 44% | 1001.3 hPa | 0 mm | - | - | - |
| 1777998113 | 6.11° C | 43% | 1000.8 hPa | 0 mm | - | - | - |
| 1777997813 | 6.11° C | 42% | 1000.8 hPa | 0 mm | - | - | - |
| 1777997513 | 6.11° C | 43% | 1000.8 hPa | 0 mm | - | - | - |
| 1777997213 | 6.11° C | 43% | 1000.8 hPa | 0 mm | - | - | - |
| 1777996913 | 5.56° C | 44% | 1000.8 hPa | 0 mm | - | - | - |
| 1777996613 | 5.56° C | 44% | 1000.8 hPa | 0 mm | - | - | - |
| 1777996313 | 5.56° C | 48% | 1001.1 hPa | 0 mm | - | - | - |
| 1777996013 | 5° C | 47% | 1001.1 hPa | 0 mm | - | - | - |
| 1777995713 | 5° C | 47% | 1001.1 hPa | 0 mm | - | - | - |
| 1777995413 | 5° C | 46% | 1001.1 hPa | 0 mm | - | - | - |
| 1777995113 | 5° C | 44% | 1001.1 hPa | 0 mm | - | - | - |
| 1777994813 | 5° C | 47% | 1001.1 hPa | 0 mm | - | - | - |
| 1777994513 | 5° C | 48% | 1001.3 hPa | 0 mm | - | - | - |
| 1777994213 | 5° C | 47% | 1001.3 hPa | 0 mm | - | - | - |
| 1777993913 | 5° C | 49% | 1001.3 hPa | 0 mm | - | - | - |
| 1777993613 | 4.44° C | 49% | 1001.4 hPa | 0 mm | - | - | - |
| 1777993313 | 4.44° C | 51% | 1001.4 hPa | 0 mm | - | - | - |
| 1777993013 | 4.44° C | 52% | 1001.4 hPa | 0 mm | - | - | - |
| 1777992713 | 3.89° C | 54% | 1001.8 hPa | 0 mm | - | - | - |
| 1777992413 | 3.89° C | 55% | 1001.8 hPa | 0 mm | - | - | - |
* Rain latest hour (hover to see other rain measurements)
** Current wind speed in m/s (hover to see current wind gust speed)